Time;durP1;ratioP1;P1;durP2;ratioP2;P2;SDS_P1;SDS_P2;PMS_P1;PMS_P2;Temp;Humidity;BMP_temperature;BMP_pressure;BME280_temperature;BME280_humidity;BME280_pressure;Samples;Min_cycle;Max_cycle;Signal;HPM_P1;HPM_P2
2022/08/29 00:00:19;;;;;;;;;2.00;2.00;;;;;;;;6338761;22;45280;-94
2022/08/29 00:02:46;;;;;;;;;2.00;1.00;;;;;;;;6339450;22;47122;-93
2022/08/29 00:05:11;;;;;;;;;2.00;2.00;;;;;;;;6338449;22;45394;-94
2022/08/29 00:07:36;;;;;;;;;2.00;1.33;;;;;;;;6367712;22;45362;-95
2022/08/29 00:10:02;;;;;;;;;1.00;1.00;;;;;;;;6340174;22;45444;-94
2022/08/29 00:12:28;;;;;;;;;1.00;1.00;;;;;;;;6337403;22;47347;-94
2022/08/29 00:14:56;;;;;;;;;1.00;1.00;;;;;;;;6367703;22;45336;-95
2022/08/29 00:17:21;;;;;;;;;2.67;1.00;;;;;;;;6339164;22;45416;-94
2022/08/29 00:19:47;;;;;;;;;1.33;1.33;;;;;;;;6339409;22;45371;-94
2022/08/29 00:22:12;;;;;;;;;1.00;1.00;;;;;;;;6339461;22;46989;-93
2022/08/29 00:24:40;;;;;;;;;1.00;1.00;;;;;;;;6338292;22;46039;-95
2022/08/29 00:27:05;;;;;;;;;2.00;1.00;;;;;;;;6338039;22;45351;-94
2022/08/29 00:29:30;;;;;;;;;0.00;0.00;;;;;;;;6339349;22;45397;-93
2022/08/29 00:31:55;;;;;;;;;1.00;1.00;;;;;;;;6338687;22;48154;-93
2022/08/29 00:34:21;;;;;;;;;1.67;1.00;;;;;;;;6338582;22;45422;-94
2022/08/29 00:36:46;;;;;;;;;2.00;2.00;;;;;;;;6339056;22;45348;-94
2022/08/29 00:39:11;;;;;;;;;1.00;1.00;;;;;;;;6338287;22;45456;-94
2022/08/29 00:41:36;;;;;;;;;1.67;1.67;;;;;;;;6338603;22;47119;-94
2022/08/29 00:44:02;;;;;;;;;2.00;1.33;;;;;;;;6338813;22;45845;-93
2022/08/29 00:46:33;;;;;;;;;2.33;1.00;;;;;;;;6338241;22;45308;-94
2022/08/29 00:49:01;;;;;;;;;1.00;1.00;;;;;;;;6339691;22;45480;-93
2022/08/29 00:51:27;;;;;;;;;2.67;1.00;;;;;;;;6338734;22;48133;-94
2022/08/29 00:53:56;;;;;;;;;1.00;1.00;;;;;;;;6337996;22;45370;-94
2022/08/29 00:56:25;;;;;;;;;2.00;2.00;;;;;;;;6338399;22;45308;-96
2022/08/29 00:58:52;;;;;;;;;1.00;1.00;;;;;;;;6338348;22;45402;-94
2022/08/29 01:01:17;;;;;;;;;1.00;1.00;;;;;;;;6338524;22;46173;-95
2022/08/29 01:03:43;;;;;;;;;2.67;2.00;;;;;;;;6338919;22;45467;-93
2022/08/29 01:06:09;;;;;;;;;3.00;2.00;;;;;;;;6339192;22;45319;-93
2022/08/29 01:08:34;;;;;;;;;2.33;1.00;;;;;;;;6338532;22;45231;-94
2022/08/29 01:13:47;;;;;;;;;3.33;2.67;;;;;;;;6366783;22;45430;-95
2022/08/29 01:16:13;;;;;;;;;1.00;1.00;;;;;;;;6338555;22;45311;-93
2022/08/29 01:18:39;;;;;;;;;2.00;2.00;;;;;;;;6339168;22;45243;-94
2022/08/29 01:21:31;;;;;;;;;2.00;2.00;;;;;;;;6339076;22;48514;-93
2022/08/29 01:24:14;;;;;;;;;0.00;0.00;;;;;;;;6236935;22;45568;-93
2022/08/29 01:26:43;;;;;;;;;2.00;2.00;;;;;;;;6212712;22;45293;-94
2022/08/29 01:29:09;;;;;;;;;4.00;1.00;;;;;;;;6213184;22;45278;-94
2022/08/29 01:31:45;;;;;;;;;1.00;1.00;;;;;;;;6212905;22;46953;-93
2022/08/29 01:34:10;;;;;;;;;0.67;0.67;;;;;;;;6213341;22;45858;-94
2022/08/29 01:36:49;;;;;;;;;1.00;1.00;;;;;;;;6213151;22;45310;-93
2022/08/29 01:39:14;;;;;;;;;1.67;0.67;;;;;;;;6211879;22;45318;-93
2022/08/29 01:41:41;;;;;;;;;2.00;2.00;;;;;;;;6211650;22;48095;-93
2022/08/29 01:44:13;;;;;;;;;1.33;1.00;;;;;;;;6239142;22;45270;-93
2022/08/29 01:46:39;;;;;;;;;0.00;0.00;;;;;;;;6214508;22;45484;-94
2022/08/29 01:49:06;;;;;;;;;1.67;1.33;;;;;;;;6213683;22;45426;-93
2022/08/29 01:51:32;;;;;;;;;1.00;1.00;;;;;;;;6213464;22;48196;-94
2022/08/29 01:53:57;;;;;;;;;2.00;1.00;;;;;;;;6211845;22;45505;-94
2022/08/29 01:56:24;;;;;;;;;0.67;0.67;;;;;;;;6212852;22;45317;-94
2022/08/29 01:58:50;;;;;;;;;1.00;0.00;;;;;;;;6217996;22;45400;-95
2022/08/29 02:01:17;;;;;;;;;0.67;0.67;;;;;;;;6309723;22;47758;-94
2022/08/29 02:03:42;;;;;;;;;1.00;1.00;;;;;;;;6365842;22;45344;-93
2022/08/29 02:06:09;;;;;;;;;3.00;1.00;;;;;;;;6338872;22;45379;-94
2022/08/29 02:08:35;;;;;;;;;2.00;2.00;;;;;;;;6338324;22;45543;-94
2022/08/29 02:11:00;;;;;;;;;2.00;1.00;;;;;;;;6364376;22;48189;-94
2022/08/29 02:13:25;;;;;;;;;0.33;0.33;;;;;;;;6338131;22;45261;-94
2022/08/29 02:15:50;;;;;;;;;1.00;1.00;;;;;;;;6338187;22;45252;-92
2022/08/29 02:18:17;;;;;;;;;0.00;0.00;;;;;;;;6367423;22;45351;-93
2022/08/29 02:20:45;;;;;;;;;1.67;1.67;;;;;;;;6364896;22;48149;-93
2022/08/29 02:23:10;;;;;;;;;1.33;1.33;;;;;;;;6337554;22;45466;-93
2022/08/29 02:25:41;;;;;;;;;0.33;0.33;;;;;;;;6366311;22;45676;-93
2022/08/29 02:28:09;;;;;;;;;1.00;1.00;;;;;;;;6364749;22;45406;-93
2022/08/29 02:30:35;;;;;;;;;3.67;1.33;;;;;;;;6337444;22;48182;-94
2022/08/29 02:33:00;;;;;;;;;0.67;0.67;;;;;;;;6364692;22;45459;-94
2022/08/29 02:35:25;;;;;;;;;3.33;2.33;;;;;;;;6338504;22;45456;-94
2022/08/29 02:37:51;;;;;;;;;1.00;1.00;;;;;;;;6364446;22;45354;-94
2022/08/29 02:40:16;;;;;;;;;2.67;1.00;;;;;;;;6364155;22;47001;-94
2022/08/29 02:42:41;;;;;;;;;1.67;0.67;;;;;;;;6337754;22;45419;-94
2022/08/29 02:45:07;;;;;;;;;3.00;3.00;;;;;;;;6337809;22;45430;-93
2022/08/29 02:47:34;;;;;;;;;0.67;0.67;;;;;;;;6364404;22;45649;-93
2022/08/29 02:49:59;;;;;;;;;0.00;0.00;;;;;;;;6338713;22;47293;-93
2022/08/29 02:52:24;;;;;;;;;0.00;0.00;;;;;;;;6338607;22;45718;-93
2022/08/29 02:54:49;;;;;;;;;1.00;1.00;;;;;;;;6339238;22;45419;-93
2022/08/29 02:57:14;;;;;;;;;2.00;0.33;;;;;;;;6338627;22;45302;-93
2022/08/29 02:59:40;;;;;;;;;1.00;1.00;;;;;;;;6365322;22;47998;-94
2022/08/29 03:02:06;;;;;;;;;1.67;0.67;;;;;;;;6339055;22;45415;-92
2022/08/29 03:04:31;;;;;;;;;2.00;2.00;;;;;;;;6368149;22;45497;-93
2022/08/29 03:06:56;;;;;;;;;2.00;2.00;;;;;;;;6338407;22;45391;-93
2022/08/29 03:09:22;;;;;;;;;1.33;1.00;;;;;;;;6339295;22;47113;-93
2022/08/29 03:11:47;;;;;;;;;0.00;0.00;;;;;;;;6339102;22;45852;-93
2022/08/29 03:14:12;;;;;;;;;0.33;0.33;;;;;;;;6368630;22;45373;-93
2022/08/29 03:16:37;;;;;;;;;1.00;1.00;;;;;;;;6367573;22;45466;-94
2022/08/29 03:19:03;;;;;;;;;1.00;1.00;;;;;;;;6339681;22;47156;-94
2022/08/29 03:21:28;;;;;;;;;1.67;1.67;;;;;;;;6367737;22;45289;-93
2022/08/29 03:23:55;;;;;;;;;1.00;1.00;;;;;;;;6367655;22;45214;-93
2022/08/29 03:26:20;;;;;;;;;1.00;1.00;;;;;;;;6338919;22;45359;-92
2022/08/29 03:28:45;;;;;;;;;0.67;0.67;;;;;;;;6338595;22;47254;-92
2022/08/29 03:31:10;;;;;;;;;1.00;1.00;;;;;;;;6367550;22;45430;-93
2022/08/29 03:33:36;;;;;;;;;1.00;1.00;;;;;;;;6338630;22;45454;-93
2022/08/29 03:36:02;;;;;;;;;1.00;1.00;;;;;;;;6338733;22;45434;-92
2022/08/29 03:38:27;;;;;;;;;0.67;0.67;;;;;;;;6338705;22;47141;-93
2022/08/29 03:40:52;;;;;;;;;1.00;1.00;;;;;;;;6338735;22;45409;-93
2022/08/29 03:43:20;;;;;;;;;1.00;1.00;;;;;;;;6367698;22;45550;-94
2022/08/29 03:45:45;;;;;;;;;1.00;1.00;;;;;;;;6339031;22;45267;-95
2022/08/29 03:48:11;;;;;;;;;0.33;0.00;;;;;;;;6339434;22;47926;-93
2022/08/29 03:50:36;;;;;;;;;3.00;2.33;;;;;;;;6338862;22;45249;-93
2022/08/29 03:53:01;;;;;;;;;2.00;2.00;;;;;;;;6340734;22;45602;-92
2022/08/29 03:55:26;;;;;;;;;3.00;1.33;;;;;;;;6340197;22;45254;-95
2022/08/29 03:57:53;;;;;;;;;2.33;1.00;;;;;;;;6338822;22;47907;-93
2022/08/29 04:00:18;;;;;;;;;1.00;1.00;;;;;;;;6338855;22;45789;-93
2022/08/29 04:02:45;;;;;;;;;2.00;1.67;;;;;;;;6368368;22;45370;-93
2022/08/29 04:05:11;;;;;;;;;1.00;1.00;;;;;;;;6339402;22;45519;-93
2022/08/29 04:07:41;;;;;;;;;1.00;1.00;;;;;;;;6339526;22;46929;-94
2022/08/29 04:10:08;;;;;;;;;0.00;0.00;;;;;;;;6339855;22;45828;-93
2022/08/29 04:12:34;;;;;;;;;2.00;2.00;;;;;;;;6339394;22;45402;-93
2022/08/29 04:14:59;;;;;;;;;1.00;1.00;;;;;;;;6340053;22;45423;-93
2022/08/29 04:17:24;;;;;;;;;1.67;0.33;;;;;;;;6338590;22;47357;-93
2022/08/29 04:19:49;;;;;;;;;1.67;0.33;;;;;;;;6339934;22;45566;-93
2022/08/29 04:22:14;;;;;;;;;2.00;1.00;;;;;;;;6340419;22;45481;-92
2022/08/29 04:24:40;;;;;;;;;1.00;1.00;;;;;;;;6338715;22;45312;-93
2022/08/29 04:27:05;;;;;;;;;2.33;2.33;;;;;;;;6337588;22;47548;-93
2022/08/29 04:29:32;;;;;;;;;1.00;1.00;;;;;;;;6367990;22;45419;-93
2022/08/29 04:31:57;;;;;;;;;1.00;1.00;;;;;;;;6339251;22;45524;-92
2022/08/29 04:34:23;;;;;;;;;1.00;1.00;;;;;;;;6340159;22;45397;-93
2022/08/29 04:36:48;;;;;;;;;1.33;1.00;;;;;;;;6373220;22;45461;-93
2022/08/29 04:39:13;;;;;;;;;1.00;1.00;;;;;;;;6342799;22;45420;-93
2022/08/29 04:41:39;;;;;;;;;1.00;1.00;;;;;;;;6341329;22;45518;-93
2022/08/29 04:44:06;;;;;;;;;2.00;1.33;;;;;;;;6342208;22;45257;-93
2022/08/29 04:46:32;;;;;;;;;1.67;1.67;;;;;;;;6338064;22;47647;-92
2022/08/29 04:48:57;;;;;;;;;1.00;1.00;;;;;;;;6366975;22;45349;-93
2022/08/29 04:51:22;;;;;;;;;2.00;1.33;;;;;;;;6339034;22;45275;-93
2022/08/29 04:53:52;;;;;;;;;2.33;1.33;;;;;;;;6339000;22;45350;-94
2022/08/29 04:56:17;;;;;;;;;2.33;1.00;;;;;;;;6338660;22;47424;-94
2022/08/29 04:58:43;;;;;;;;;2.00;2.00;;;;;;;;6338064;22;45354;-92
2022/08/29 05:01:11;;;;;;;;;1.33;1.33;;;;;;;;6338365;22;45435;-93
2022/08/29 05:03:36;;;;;;;;;2.00;1.00;;;;;;;;6367271;22;45291;-94
2022/08/29 05:06:05;;;;;;;;;2.00;2.00;;;;;;;;6338550;22;47530;-93
2022/08/29 05:08:31;;;;;;;;;2.67;1.00;;;;;;;;6338447;22;45452;-94
2022/08/29 05:10:56;;;;;;;;;1.67;1.67;;;;;;;;6338917;22;45425;-92
2022/08/29 05:13:21;;;;;;;;;1.00;1.00;;;;;;;;6338835;22;45420;-93
2022/08/29 05:15:47;;;;;;;;;2.00;1.67;;;;;;;;6337900;22;47184;-94
2022/08/29 05:18:12;;;;;;;;;2.67;2.67;;;;;;;;6367524;22;45368;-93
2022/08/29 05:20:41;;;;;;;;;3.00;2.00;;;;;;;;6339001;22;45414;-94
2022/08/29 05:23:07;;;;;;;;;2.00;2.00;;;;;;;;6338623;22;45414;-93
2022/08/29 05:25:32;;;;;;;;;1.33;1.33;;;;;;;;6338031;22;47249;-93
2022/08/29 05:27:57;;;;;;;;;1.67;1.33;;;;;;;;6338573;22;45360;-93
2022/08/29 05:30:22;;;;;;;;;3.00;2.00;;;;;;;;6338109;22;45251;-93
2022/08/29 05:32:48;;;;;;;;;2.00;1.00;;;;;;;;6339258;22;45524;-93
2022/08/29 05:35:13;;;;;;;;;5.67;3.33;;;;;;;;6367022;22;46055;-93
2022/08/29 05:37:38;;;;;;;;;2.67;2.00;;;;;;;;6338365;22;45245;-93
2022/08/29 05:40:03;;;;;;;;;3.33;2.33;;;;;;;;6367816;22;45455;-92
2022/08/29 05:42:29;;;;;;;;;2.67;1.33;;;;;;;;6337352;22;45290;-93
2022/08/29 05:44:54;;;;;;;;;2.00;2.00;;;;;;;;6367360;22;46429;-93
2022/08/29 05:47:20;;;;;;;;;1.33;1.33;;;;;;;;6337777;22;45776;-93
2022/08/29 05:49:46;;;;;;;;;1.00;1.00;;;;;;;;6339069;22;45360;-93
2022/08/29 05:52:12;;;;;;;;;2.00;2.00;;;;;;;;6339184;22;45319;-94
2022/08/29 05:54:38;;;;;;;;;1.00;1.00;;;;;;;;6338110;22;47095;-93
2022/08/29 05:57:04;;;;;;;;;1.00;1.00;;;;;;;;6337335;22;45811;-93
2022/08/29 05:59:30;;;;;;;;;1.00;1.00;;;;;;;;6336053;22;45303;-94
2022/08/29 06:01:55;;;;;;;;;1.00;1.00;;;;;;;;6335602;22;45288;-93
2022/08/29 06:04:20;;;;;;;;;2.67;2.00;;;;;;;;6336544;22;47523;-95
2022/08/29 06:06:46;;;;;;;;;3.33;2.00;;;;;;;;6336131;22;45263;-95
2022/08/29 06:09:11;;;;;;;;;0.00;0.00;;;;;;;;6336022;22;45515;-93
2022/08/29 06:14:40;;;;;;;;;1.00;1.00;;;;;;;;6366629;22;45198;-93
2022/08/29 06:17:06;;;;;;;;;4.00;1.00;;;;;;;;6335842;22;45283;-94
2022/08/29 06:19:33;;;;;;;;;1.33;1.33;;;;;;;;6336611;22;45377;-94
2022/08/29 06:22:00;;;;;;;;;1.00;1.00;;;;;;;;6336629;22;45311;-93
2022/08/29 06:24:31;;;;;;;;;1.00;1.00;;;;;;;;6335531;22;47335;-96
2022/08/29 06:26:58;;;;;;;;;2.00;1.00;;;;;;;;6335509;22;45713;-91
2022/08/29 06:29:25;;;;;;;;;2.67;2.67;;;;;;;;6364702;22;45296;-89
2022/08/29 06:31:59;;;;;;;;;2.33;1.67;;;;;;;;6364900;22;45275;-95
2022/08/29 06:34:25;;;;;;;;;2.00;1.00;;;;;;;;6363938;22;46069;-92
2022/08/29 06:36:50;;;;;;;;;2.33;2.33;;;;;;;;6335536;22;45391;-95
2022/08/29 06:39:16;;;;;;;;;2.33;1.00;;;;;;;;6336400;22;45374;-94
2022/08/29 06:41:41;;;;;;;;;1.00;1.00;;;;;;;;6335821;22;45534;-96
2022/08/29 06:44:07;;;;;;;;;2.00;2.00;;;;;;;;6336391;22;47122;-92
2022/08/29 06:46:33;;;;;;;;;1.00;1.00;;;;;;;;6364521;22;45262;-95
2022/08/29 06:49:00;;;;;;;;;2.00;2.00;;;;;;;;6344837;22;45593;-96
2022/08/29 06:54:38;;;;;;;;;2.00;2.00;;;;;;;;6322018;22;1142269;-96
2022/08/29 06:57:04;;;;;;;;;2.00;2.00;;;;;;;;6354657;22;45364;-95
2022/08/29 06:59:29;;;;;;;;;2.33;1.00;;;;;;;;6379079;22;45291;-94
2022/08/29 07:07:20;;;;;;;;;3.00;1.50;;;;;;;;6365514;22;46381;-96
2022/08/29 07:12:28;;;;;;;;;1.00;1.00;;;;;;;;6424322;22;45202;-96
2022/08/29 07:17:29;;;;;;;;;2.00;2.00;;;;;;;;6354998;22;45632;-96
2022/08/29 07:19:54;;;;;;;;;1.00;1.00;;;;;;;;6327473;22;44937;-96
2022/08/29 07:22:19;;;;;;;;;2.67;2.00;;;;;;;;6353738;22;44709;-96
2022/08/29 07:27:25;;;;;;;;;2.00;2.00;;;;;;;;6336582;22;46238;-95
2022/08/29 07:32:26;;;;;;;;;4.67;2.00;;;;;;;;6363143;22;45385;-96
2022/08/29 07:34:52;;;;;;;;;0.33;0.33;;;;;;;;6360505;22;45997;-96
2022/08/29 07:37:19;;;;;;;;;2.00;1.33;;;;;;;;6357171;22;45276;-96
2022/08/29 07:39:45;;;;;;;;;2.00;2.00;;;;;;;;6324040;22;46206;-96
2022/08/29 07:42:12;;;;;;;;;1.67;1.67;;;;;;;;6316881;22;45245;-96
2022/08/29 07:44:37;;;;;;;;;3.00;1.00;;;;;;;;6349444;22;47544;-96
2022/08/29 07:47:02;;;;;;;;;4.00;3.00;;;;;;;;6379138;22;45276;-96
2022/08/29 07:49:29;;;;;;;;;2.00;2.00;;;;;;;;6320661;22;45326;-96
2022/08/29 07:51:54;;;;;;;;;2.00;2.00;;;;;;;;6379947;22;45201;-96
2022/08/29 07:54:22;;;;;;;;;1.00;1.00;;;;;;;;6350016;22;47184;-95
2022/08/29 07:56:48;;;;;;;;;4.67;0.67;;;;;;;;6346281;22;45680;-93
2022/08/29 07:59:15;;;;;;;;;3.00;2.00;;;;;;;;6367155;22;45395;-95
2022/08/29 08:02:02;;;;;;;;;2.00;1.00;;;;;;;;6352637;22;45491;-96
2022/08/29 08:04:27;;;;;;;;;4.67;4.00;;;;;;;;6348671;22;46889;-96
2022/08/29 08:06:55;;;;;;;;;2.00;2.00;;;;;;;;6347104;22;45318;-96
2022/08/29 08:09:20;;;;;;;;;2.00;1.33;;;;;;;;6342459;22;45403;-96
2022/08/29 08:11:45;;;;;;;;;1.33;1.33;;;;;;;;6345330;22;45304;-95
2022/08/29 08:16:46;;;;;;;;;2.33;1.00;;;;;;;;6369916;22;45365;-94
2022/08/29 08:19:14;;;;;;;;;4.33;2.00;;;;;;;;6340185;22;45409;-91
2022/08/29 08:21:40;;;;;;;;;5.33;2.00;;;;;;;;6341584;22;45617;-91
2022/08/29 08:24:06;;;;;;;;;2.00;2.00;;;;;;;;6365322;22;46177;-92
2022/08/29 08:26:31;;;;;;;;;3.33;3.00;;;;;;;;6364199;22;45300;-92
2022/08/29 08:28:57;;;;;;;;;3.00;3.00;;;;;;;;6365454;22;45542;-91
2022/08/29 08:31:22;;;;;;;;;4.00;4.00;;;;;;;;6366884;22;45856;-88
2022/08/29 08:33:47;;;;;;;;;2.00;2.00;;;;;;;;6360731;22;45822;-89
2022/08/29 08:36:18;;;;;;;;;4.67;3.00;;;;;;;;6366037;22;45678;-89
2022/08/29 08:38:44;;;;;;;;;0.00;0.00;;;;;;;;6365007;22;45212;-89
2022/08/29 08:41:18;;;;;;;;;3.67;3.00;;;;;;;;6365222;22;45629;-87
2022/08/29 08:43:52;;;;;;;;;4.00;2.00;;;;;;;;6366358;22;45574;-87
2022/08/29 08:46:18;;;;;;;;;3.00;1.67;;;;;;;;6337196;22;45327;-90
2022/08/29 08:48:45;;;;;;;;;3.67;1.00;;;;;;;;6336220;22;45383;-88
2022/08/29 08:51:17;;;;;;;;;3.00;2.00;;;;;;;;6365752;22;45299;-89
2022/08/29 08:53:43;;;;;;;;;3.00;3.00;;;;;;;;6335982;22;47069;-88
2022/08/29 08:56:18;;;;;;;;;2.33;2.00;;;;;;;;6336437;22;45566;-88
2022/08/29 08:58:47;;;;;;;;;2.33;2.33;;;;;;;;6336267;22;45598;-88
2022/08/29 09:01:25;;;;;;;;;2.33;2.33;;;;;;;;6336359;22;45449;-88
2022/08/29 09:04:09;;;;;;;;;6.00;3.00;;;;;;;;6364970;22;45350;-87
2022/08/29 09:06:40;;;;;;;;;4.00;4.00;;;;;;;;6336742;22;45312;-86
2022/08/29 09:09:41;;;;;;;;;5.00;5.00;;;;;;;;6364353;22;45341;-88
2022/08/29 09:12:29;;;;;;;;;5.67;4.00;;;;;;;;6365033;22;45376;-87
2022/08/29 09:15:16;;;;;;;;;2.00;2.00;;;;;;;;6337999;22;47234;-88
2022/08/29 09:17:51;;;;;;;;;7.67;7.00;;;;;;;;6338030;22;45236;-88
2022/08/29 09:20:18;;;;;;;;;2.00;2.00;;;;;;;;6366247;22;45386;-84
2022/08/29 09:22:48;;;;;;;;;2.33;2.00;;;;;;;;6337158;22;45745;-85
2022/08/29 09:25:14;;;;;;;;;3.33;2.67;;;;;;;;6365205;22;46769;-87
2022/08/29 09:27:39;;;;;;;;;3.67;2.33;;;;;;;;6365633;22;45433;-86
2022/08/29 09:30:04;;;;;;;;;3.00;3.00;;;;;;;;6366868;22;45228;-85
2022/08/29 09:32:30;;;;;;;;;2.00;1.00;;;;;;;;6365630;22;45633;-84
2022/08/29 09:34:56;;;;;;;;;2.33;1.33;;;;;;;;6366514;22;46316;-85
2022/08/29 09:37:21;;;;;;;;;3.33;3.00;;;;;;;;6365162;22;45299;-86
2022/08/29 09:39:55;;;;;;;;;4.00;4.00;;;;;;;;6364702;22;45268;-86
2022/08/29 09:42:23;;;;;;;;;2.33;2.00;;;;;;;;6336303;22;45393;-92
2022/08/29 09:44:56;;;;;;;;;3.00;3.00;;;;;;;;6367846;22;46005;-92
2022/08/29 09:47:23;;;;;;;;;3.00;3.00;;;;;;;;6365317;22;45288;-92
2022/08/29 09:50:03;;;;;;;;;1.33;1.33;;;;;;;;6366256;22;45365;-92
2022/08/29 09:52:28;;;;;;;;;5.67;5.67;;;;;;;;6365801;22;45315;-88
2022/08/29 09:54:54;;;;;;;;;5.00;3.67;;;;;;;;6337174;22;48227;-94
2022/08/29 09:57:27;;;;;;;;;4.00;2.33;;;;;;;;6365958;22;45350;-96
2022/08/29 10:00:13;;;;;;;;;3.00;3.00;;;;;;;;6338379;22;45231;-88
2022/08/29 10:02:41;;;;;;;;;2.00;2.00;;;;;;;;6366345;22;45280;-91
2022/08/29 10:05:08;;;;;;;;;2.00;2.00;;;;;;;;6337682;22;47117;-90
2022/08/29 10:07:47;;;;;;;;;3.67;3.67;;;;;;;;6367375;22;45659;-91
2022/08/29 10:10:12;;;;;;;;;2.00;1.00;;;;;;;;6343935;22;45362;-90
2022/08/29 10:12:58;;;;;;;;;3.00;3.00;;;;;;;;6337174;22;45334;-91
2022/08/29 10:15:27;;;;;;;;;3.67;3.67;;;;;;;;6364786;22;46352;-92
2022/08/29 10:20:58;;;;;;;;;3.00;3.00;;;;;;;;6366656;22;45236;-92
2022/08/29 10:23:36;;;;;;;;;4.33;3.00;;;;;;;;6340101;22;45419;-96
2022/08/29 10:26:04;;;;;;;;;5.00;3.00;;;;;;;;6357543;22;47131;-96
2022/08/29 10:28:35;;;;;;;;;2.67;2.67;;;;;;;;6363417;22;44647;-96
2022/08/29 10:31:07;;;;;;;;;5.00;5.00;;;;;;;;6393138;22;45291;-95
2022/08/29 10:33:32;;;;;;;;;4.00;2.00;;;;;;;;6357118;22;45327;-96
2022/08/29 10:36:13;;;;;;;;;3.00;1.75;;;;;;;;6365187;22;46227;-96
2022/08/29 10:38:51;;;;;;;;;2.00;2.00;;;;;;;;6394808;22;44635;-96
2022/08/29 10:41:25;;;;;;;;;2.00;2.00;;;;;;;;6392106;22;44686;-96
2022/08/29 10:43:50;;;;;;;;;8.00;5.00;;;;;;;;6351716;22;45265;-96
2022/08/29 10:46:25;;;;;;;;;2.75;2.75;;;;;;;;6388315;22;45106;-96
2022/08/29 10:49:16;;;;;;;;;3.00;3.00;;;;;;;;6376372;22;45098;-95
2022/08/29 10:51:45;;;;;;;;;3.00;3.00;;;;;;;;6274476;22;45285;-95
2022/08/29 10:54:15;;;;;;;;;4.00;4.00;;;;;;;;6249731;22;45257;-94
2022/08/29 10:56:43;;;;;;;;;4.00;4.00;;;;;;;;6277690;22;45471;-95
2022/08/29 10:59:27;;;;;;;;;4.33;3.00;;;;;;;;6277676;22;45320;-94
2022/08/29 11:01:56;;;;;;;;;4.00;4.00;;;;;;;;6278909;22;45282;-96
2022/08/29 11:04:23;;;;;;;;;2.67;2.67;;;;;;;;6250304;22;45574;-94
2022/08/29 11:07:00;;;;;;;;;4.00;3.67;;;;;;;;6279034;22;45630;-94
2022/08/29 11:09:29;;;;;;;;;4.00;3.00;;;;;;;;6275457;22;45590;-95
2022/08/29 11:12:14;;;;;;;;;2.00;2.00;;;;;;;;6254900;22;45377;-96
2022/08/29 11:14:42;;;;;;;;;4.33;3.00;;;;;;;;6219583;22;45348;-95
2022/08/29 11:17:09;;;;;;;;;4.33;3.33;;;;;;;;6217410;22;47152;-96
2022/08/29 11:19:53;;;;;;;;;5.33;4.00;;;;;;;;6281930;22;45441;-96
2022/08/29 11:22:30;;;;;;;;;3.00;3.00;;;;;;;;6284812;22;44712;-96
2022/08/29 11:25:21;;;;;;;;;3.33;3.33;;;;;;;;6286536;22;45255;-96
2022/08/29 11:28:00;;;;;;;;;3.00;3.00;;;;;;;;6282622;22;46073;-96
2022/08/29 11:30:35;;;;;;;;;4.00;3.67;;;;;;;;6288936;22;45273;-96
2022/08/29 11:33:00;;;;;;;;;5.00;5.00;;;;;;;;6284925;22;45260;-95
2022/08/29 11:35:44;;;;;;;;;4.00;3.00;;;;;;;;6287918;22;44771;-96
2022/08/29 11:38:29;;;;;;;;;2.00;2.00;;;;;;;;6286906;22;47007;-96
2022/08/29 11:41:03;;;;;;;;;4.67;4.00;;;;;;;;6287567;22;44783;-96
2022/08/29 11:43:34;;;;;;;;;3.00;3.00;;;;;;;;6286628;22;45330;-96
2022/08/29 11:46:01;;;;;;;;;3.00;3.00;;;;;;;;6288228;22;45316;-96
2022/08/29 11:48:32;;;;;;;;;2.33;2.00;;;;;;;;6294817;22;45462;-96
2022/08/29 11:51:16;;;;;;;;;4.00;4.00;;;;;;;;6291011;22;45265;-96
2022/08/29 11:53:42;;;;;;;;;5.00;5.00;;;;;;;;6297551;22;45261;-95
2022/08/29 11:56:13;;;;;;;;;2.67;2.67;;;;;;;;6298412;22;45229;-96
2022/08/29 11:58:44;;;;;;;;;3.00;3.00;;;;;;;;6296877;22;46509;-96
2022/08/29 12:01:24;;;;;;;;;3.00;3.00;;;;;;;;6293616;22;45259;-96
2022/08/29 12:03:51;;;;;;;;;3.00;2.00;;;;;;;;6297585;22;44618;-96
2022/08/29 12:06:16;;;;;;;;;2.00;2.00;;;;;;;;6280872;22;45238;-95
2022/08/29 12:08:47;;;;;;;;;4.00;2.00;;;;;;;;6285828;22;46431;-96
2022/08/29 12:11:12;;;;;;;;;3.33;3.33;;;;;;;;6294084;22;45272;-96
2022/08/29 12:13:51;;;;;;;;;4.67;4.00;;;;;;;;6293110;22;44731;-96
2022/08/29 12:16:18;;;;;;;;;4.00;4.00;;;;;;;;6294613;22;44832;-93
2022/08/29 12:18:43;;;;;;;;;1.67;1.67;;;;;;;;6292643;22;46461;-96
2022/08/29 12:21:27;;;;;;;;;3.67;3.67;;;;;;;;6292978;22;44753;-96
2022/08/29 12:23:58;;;;;;;;;3.00;3.00;;;;;;;;6296671;22;44661;-96
2022/08/29 12:26:39;;;;;;;;;4.00;3.33;;;;;;;;6324125;22;45428;-96
2022/08/29 12:29:05;;;;;;;;;2.67;2.33;;;;;;;;6323070;22;46495;-96
2022/08/29 12:31:51;;;;;;;;;2.00;2.00;;;;;;;;6323235;22;45261;-96
2022/08/29 12:34:30;;;;;;;;;4.00;3.00;;;;;;;;6327498;22;45160;-96
2022/08/29 12:37:15;;;;;;;;;3.00;3.00;;;;;;;;6327652;22;44761;-96
2022/08/29 12:39:58;;;;;;;;;4.00;3.00;;;;;;;;6329196;22;46772;-96
2022/08/29 12:42:30;;;;;;;;;4.33;4.33;;;;;;;;6322514;22;45362;-96
2022/08/29 12:45:00;;;;;;;;;3.00;3.00;;;;;;;;6315929;22;44646;-96
2022/08/29 12:47:25;;;;;;;;;3.00;3.00;;;;;;;;6313800;22;45244;-96
2022/08/29 12:49:54;;;;;;;;;2.00;2.00;;;;;;;;6320438;22;45421;-94
2022/08/29 12:52:34;;;;;;;;;3.67;3.67;;;;;;;;6311439;22;45286;-96
2022/08/29 12:55:16;;;;;;;;;4.00;3.00;;;;;;;;6314121;22;45319;-96
2022/08/29 12:57:43;;;;;;;;;5.00;3.00;;;;;;;;6306661;22;45322;-96
2022/08/29 13:00:12;;;;;;;;;5.33;5.00;;;;;;;;6305749;22;45592;-95
2022/08/29 13:02:37;;;;;;;;;3.33;3.33;;;;;;;;6303435;22;45445;-94
2022/08/29 13:05:16;;;;;;;;;4.00;4.00;;;;;;;;6305453;22;45336;-95
2022/08/29 13:07:51;;;;;;;;;4.00;3.00;;;;;;;;6305176;22;45296;-94
2022/08/29 13:10:17;;;;;;;;;0.00;0.00;;;;;;;;6305404;22;47263;-96
2022/08/29 13:12:42;;;;;;;;;5.00;3.00;;;;;;;;6307664;22;45268;-95
2022/08/29 13:15:16;;;;;;;;;5.33;5.00;;;;;;;;6304797;22;45242;-96
2022/08/29 13:17:43;;;;;;;;;3.00;3.00;;;;;;;;6307783;22;45621;-94
2022/08/29 13:20:27;;;;;;;;;4.00;4.00;;;;;;;;6309176;22;46248;-95
2022/08/29 13:23:08;;;;;;;;;3.67;3.67;;;;;;;;6312411;22;45269;-95
2022/08/29 13:25:35;;;;;;;;;4.00;4.00;;;;;;;;6307121;22;45506;-96
2022/08/29 13:28:00;;;;;;;;;7.33;5.00;;;;;;;;6308367;22;45242;-95
2022/08/29 13:30:25;;;;;;;;;4.00;3.00;;;;;;;;6307232;22;47154;-94
2022/08/29 13:32:51;;;;;;;;;4.00;4.00;;;;;;;;6305252;22;45502;-94
2022/08/29 13:35:18;;;;;;;;;6.67;4.67;;;;;;;;6303648;22;45504;-95
2022/08/29 13:38:04;;;;;;;;;4.00;4.00;;;;;;;;6307890;22;45225;-95
2022/08/29 13:40:31;;;;;;;;;6.00;6.00;;;;;;;;6301849;22;46767;-95
2022/08/29 13:42:58;;;;;;;;;4.00;4.00;;;;;;;;6303336;22;45336;-96
2022/08/29 13:45:24;;;;;;;;;5.00;5.00;;;;;;;;6307012;22;45424;-95
2022/08/29 13:48:11;;;;;;;;;6.00;6.00;;;;;;;;6306430;22;45675;-95
2022/08/29 13:50:36;;;;;;;;;4.00;4.00;;;;;;;;6304491;22;45422;-96
2022/08/29 13:53:01;;;;;;;;;5.00;4.00;;;;;;;;6306896;22;45185;-94
2022/08/29 13:55:28;;;;;;;;;5.67;5.67;;;;;;;;6301624;22;45293;-94
2022/08/29 13:57:53;;;;;;;;;3.00;3.00;;;;;;;;6304484;22;45520;-95
2022/08/29 14:00:21;;;;;;;;;6.00;6.00;;;;;;;;6304774;22;46435;-95
2022/08/29 14:02:46;;;;;;;;;5.33;5.33;;;;;;;;6308335;22;44758;-95
2022/08/29 14:05:12;;;;;;;;;5.00;4.00;;;;;;;;6304777;22;45378;-95
2022/08/29 14:07:39;;;;;;;;;8.00;5.33;;;;;;;;6308122;22;45340;-95
2022/08/29 14:10:05;;;;;;;;;4.00;4.00;;;;;;;;6306608;22;45284;-95
2022/08/29 14:12:30;;;;;;;;;6.00;5.00;;;;;;;;6304370;22;45234;-95
2022/08/29 14:14:55;;;;;;;;;5.67;5.67;;;;;;;;6303618;22;45225;-95
2022/08/29 14:17:21;;;;;;;;;4.67;4.67;;;;;;;;6303707;22;45454;-94
2022/08/29 14:19:46;;;;;;;;;4.33;3.00;;;;;;;;6305548;22;46257;-95
2022/08/29 14:22:12;;;;;;;;;4.00;4.00;;;;;;;;6312351;22;45286;-94
2022/08/29 14:24:38;;;;;;;;;5.00;5.00;;;;;;;;6329806;22;45341;-94
2022/08/29 14:27:03;;;;;;;;;5.00;5.00;;;;;;;;6309373;22;45424;-94
2022/08/29 14:29:29;;;;;;;;;6.00;6.00;;;;;;;;6309197;22;46432;-94
2022/08/29 14:31:54;;;;;;;;;6.00;4.00;;;;;;;;6309335;22;45421;-94
2022/08/29 14:34:20;;;;;;;;;4.00;4.00;;;;;;;;6309031;22;45354;-94
2022/08/29 14:36:45;;;;;;;;;6.00;4.33;;;;;;;;6336630;22;45300;-94
2022/08/29 14:39:12;;;;;;;;;4.00;4.00;;;;;;;;6313195;22;46989;-96
2022/08/29 14:41:37;;;;;;;;;4.33;4.33;;;;;;;;6313212;22;45580;-96
2022/08/29 14:44:02;;;;;;;;;5.00;5.00;;;;;;;;6315243;22;45608;-96
2022/08/29 14:46:27;;;;;;;;;4.33;4.33;;;;;;;;6320723;22;45503;-96
2022/08/29 14:48:53;;;;;;;;;4.33;4.33;;;;;;;;6326327;22;46943;-96
2022/08/29 14:51:18;;;;;;;;;5.33;5.00;;;;;;;;6351986;22;45825;-95
2022/08/29 14:53:44;;;;;;;;;5.67;5.67;;;;;;;;6355506;22;45255;-94
2022/08/29 14:56:09;;;;;;;;;4.00;4.00;;;;;;;;6324330;22;45249;-96
2022/08/29 14:58:35;;;;;;;;;4.00;4.00;;;;;;;;6351825;22;45431;-96
2022/08/29 15:01:00;;;;;;;;;6.00;5.33;;;;;;;;6353508;22;45427;-96
2022/08/29 15:03:25;;;;;;;;;4.67;4.33;;;;;;;;6353821;22;44642;-96
2022/08/29 15:05:50;;;;;;;;;6.00;6.00;;;;;;;;6351251;22;45268;-96
2022/08/29 15:08:16;;;;;;;;;7.33;6.00;;;;;;;;6350411;22;47949;-96
2022/08/29 15:10:41;;;;;;;;;5.67;4.67;;;;;;;;6330293;22;44655;-96
2022/08/29 15:13:06;;;;;;;;;6.33;5.00;;;;;;;;6310670;22;44646;-96
2022/08/29 15:15:32;;;;;;;;;6.33;5.00;;;;;;;;6331515;22;44765;-96
2022/08/29 15:17:58;;;;;;;;;8.00;7.00;;;;;;;;6326130;22;46098;-96
2022/08/29 15:20:24;;;;;;;;;4.00;4.00;;;;;;;;6320674;22;45341;-96